Time;durP1;ratioP1;P1;durP2;ratioP2;P2;SDS_P1;SDS_P2;PMS_P1;PMS_P2;Temp;Humidity;BMP_temperature;BMP_pressure;BME280_temperature;BME280_humidity;BME280_pressure;Samples;Min_cycle;Max_cycle;Signal;HPM_P1;HPM_P2
2022/03/02 00:00:41;;;;;;;14.35;5.00;;;;;;;;;;5036097;28;20506;-76
2022/03/02 00:03:08;;;;;;;19.38;4.90;;;;;;;;;;5034805;28;20013;-77
2022/03/02 00:05:36;;;;;;;17.70;5.07;;;;;;;;;;5034051;28;20030;-76
2022/03/02 00:08:03;;;;;;;13.18;4.85;;;;;;;;;;5033144;28;20514;-76
2022/03/02 00:10:30;;;;;;;17.95;5.32;;;;;;;;;;5038267;28;20033;-77
2022/03/02 00:12:56;;;;;;;12.82;4.97;;;;;;;;;;5034211;28;20372;-77
2022/03/02 00:15:22;;;;;;;14.88;4.85;;;;;;;;;;5034456;28;20025;-76
2022/03/02 00:17:49;;;;;;;15.98;4.75;;;;;;;;;;5035953;28;20031;-76
2022/03/02 00:20:15;;;;;;;15.73;5.03;;;;;;;;;;5031510;28;20503;-77
2022/03/02 00:22:41;;;;;;;19.02;5.45;;;;;;;;;;5049231;28;20032;-77
2022/03/02 00:25:08;;;;;;;13.90;4.30;;;;;;;;;;5036007;28;20021;-77
2022/03/02 00:27:35;;;;;;;15.55;4.25;;;;;;;;;;5035200;28;20037;-77
2022/03/02 00:30:02;;;;;;;12.68;4.50;;;;;;;;;;5035912;28;20024;-77
2022/03/02 00:32:28;;;;;;;12.40;4.88;;;;;;;;;;5032806;28;20037;-77
2022/03/02 00:34:55;;;;;;;14.63;4.78;;;;;;;;;;5051106;28;20028;-77
2022/03/02 00:37:21;;;;;;;24.98;5.43;;;;;;;;;;5036991;28;20037;-77
2022/03/02 00:39:47;;;;;;;17.45;5.03;;;;;;;;;;5035347;28;20046;-77
2022/03/02 00:42:14;;;;;;;20.17;5.03;;;;;;;;;;5035257;28;20037;-77
2022/03/02 00:44:41;;;;;;;16.85;4.82;;;;;;;;;;5034345;28;20490;-76
2022/03/02 00:47:07;;;;;;;20.23;5.38;;;;;;;;;;5031856;28;20380;-77
2022/03/02 00:49:35;;;;;;;19.45;5.03;;;;;;;;;;5037176;28;20364;-77
2022/03/02 00:52:02;;;;;;;15.93;4.88;;;;;;;;;;5033573;28;20041;-77
2022/03/02 00:54:29;;;;;;;15.80;4.70;;;;;;;;;;5033616;28;20397;-76
2022/03/02 00:56:55;;;;;;;15.38;4.97;;;;;;;;;;5034957;28;20029;-77
2022/03/02 00:59:22;;;;;;;16.15;5.15;;;;;;;;;;5031606;28;20032;-77
2022/03/02 01:01:49;;;;;;;24.60;5.25;;;;;;;;;;5035456;28;20028;-77
2022/03/02 01:04:15;;;;;;;15.68;5.10;;;;;;;;;;5035576;28;20025;-76
2022/03/02 01:06:41;;;;;;;21.17;4.97;;;;;;;;;;5034881;28;20030;-77
2022/03/02 01:09:08;;;;;;;22.15;4.40;;;;;;;;;;5034981;28;20040;-77
2022/03/02 01:11:34;;;;;;;14.48;5.13;;;;;;;;;;5033245;28;20035;-76
2022/03/02 01:14:00;;;;;;;16.00;4.97;;;;;;;;;;5032226;28;20536;-76
2022/03/02 01:16:27;;;;;;;18.65;4.10;;;;;;;;;;5034709;28;20071;-77
2022/03/02 01:18:53;;;;;;;23.13;5.10;;;;;;;;;;5034855;28;20371;-77
2022/03/02 01:21:20;;;;;;;15.27;4.28;;;;;;;;;;5034672;28;20021;-77
2022/03/02 01:23:46;;;;;;;12.30;4.45;;;;;;;;;;5034243;28;20021;-77
2022/03/02 01:26:12;;;;;;;20.23;4.82;;;;;;;;;;5030430;28;20025;-76
2022/03/02 01:28:39;;;;;;;22.92;4.53;;;;;;;;;;5036427;28;20032;-77
2022/03/02 01:31:05;;;;;;;13.55;4.25;;;;;;;;;;5033312;28;20022;-77
2022/03/02 01:33:31;;;;;;;19.98;4.78;;;;;;;;;;5032969;28;20041;-77
2022/03/02 01:35:58;;;;;;;18.45;4.60;;;;;;;;;;5033211;28;20013;-76
2022/03/02 01:38:24;;;;;;;13.25;4.85;;;;;;;;;;5031008;28;20037;-77
2022/03/02 01:40:50;;;;;;;20.50;4.90;;;;;;;;;;5034476;28;20617;-77
2022/03/02 01:43:17;;;;;;;13.75;4.53;;;;;;;;;;5035030;28;20039;-77
2022/03/02 01:45:43;;;;;;;10.13;3.97;;;;;;;;;;5034456;28;20022;-77
2022/03/02 01:48:10;;;;;;;11.93;4.90;;;;;;;;;;5034278;28;20037;-76
2022/03/02 01:50:36;;;;;;;12.40;4.07;;;;;;;;;;5032446;28;20445;-77
2022/03/02 01:53:02;;;;;;;22.08;4.43;;;;;;;;;;5029977;28;20049;-77
2022/03/02 01:55:29;;;;;;;13.70;5.25;;;;;;;;;;5036157;28;20501;-77
2022/03/02 01:57:57;;;;;;;16.40;4.38;;;;;;;;;;5034273;28;20033;-76
2022/03/02 02:00:24;;;;;;;13.38;4.40;;;;;;;;;;5033849;28;20026;-77
2022/03/02 02:02:51;;;;;;;11.82;4.95;;;;;;;;;;5034463;28;20028;-77
2022/03/02 02:05:17;;;;;;;18.77;4.60;;;;;;;;;;5029894;28;20024;-76
2022/03/02 02:07:44;;;;;;;14.77;4.80;;;;;;;;;;5035893;28;20078;-77
2022/03/02 02:10:10;;;;;;;14.15;4.75;;;;;;;;;;5032732;28;20029;-77
2022/03/02 02:12:37;;;;;;;11.50;4.60;;;;;;;;;;5032437;28;20410;-77
2022/03/02 02:15:04;;;;;;;18.23;5.05;;;;;;;;;;5034065;28;20022;-77
2022/03/02 02:17:30;;;;;;;18.75;4.63;;;;;;;;;;5031847;28;20025;-77
2022/03/02 02:19:57;;;;;;;9.10;4.00;;;;;;;;;;5032717;28;20025;-77
2022/03/02 02:22:23;;;;;;;17.77;4.28;;;;;;;;;;5035156;28;20397;-77
2022/03/02 02:24:49;;;;;;;16.33;4.50;;;;;;;;;;5034104;28;20083;-77
2022/03/02 02:27:16;;;;;;;15.38;4.57;;;;;;;;;;5033883;28;20037;-77
2022/03/02 02:29:43;;;;;;;11.77;3.80;;;;;;;;;;5033325;28;20474;-77
2022/03/02 02:32:09;;;;;;;24.20;4.72;;;;;;;;;;5030122;28;20505;-77
2022/03/02 02:34:36;;;;;;;11.65;4.25;;;;;;;;;;5034570;28;20017;-77
2022/03/02 02:37:05;;;;;;;9.60;3.85;;;;;;;;;;5033816;28;20030;-76
2022/03/02 02:39:32;;;;;;;14.88;3.90;;;;;;;;;;5033736;28;20459;-76
2022/03/02 02:42:08;;;;;;;11.07;3.83;;;;;;;;;;5033812;28;20025;-77
2022/03/02 02:44:35;;;;;;;15.80;4.15;;;;;;;;;;5032201;28;20036;-76
2022/03/02 02:47:02;;;;;;;14.05;3.85;;;;;;;;;;5031799;28;20027;-77
2022/03/02 02:49:28;;;;;;;17.30;4.60;;;;;;;;;;5034061;28;20021;-77
2022/03/02 02:51:55;;;;;;;14.65;4.45;;;;;;;;;;5031656;28;20033;-77
2022/03/02 02:54:22;;;;;;;17.60;4.18;;;;;;;;;;5033645;28;20044;-76
2022/03/02 02:56:48;;;;;;;16.95;4.68;;;;;;;;;;5032573;28;20360;-77
2022/03/02 02:59:15;;;;;;;14.52;4.25;;;;;;;;;;5029479;28;20076;-76
2022/03/02 03:01:41;;;;;;;14.93;4.38;;;;;;;;;;5041162;28;20033;-77
2022/03/02 03:04:08;;;;;;;15.63;4.32;;;;;;;;;;5033881;28;20033;-76
2022/03/02 03:06:34;;;;;;;13.05;4.00;;;;;;;;;;5033291;28;20029;-76
2022/03/02 03:09:01;;;;;;;21.45;4.15;;;;;;;;;;5033666;28;20482;-76
2022/03/02 03:11:27;;;;;;;11.70;3.53;;;;;;;;;;5031185;28;20029;-77
2022/03/02 03:13:53;;;;;;;11.57;3.90;;;;;;;;;;5035474;28;20490;-77
2022/03/02 03:16:20;;;;;;;12.38;3.92;;;;;;;;;;5038309;28;20025;-77
2022/03/02 03:18:46;;;;;;;16.65;4.43;;;;;;;;;;5037007;28;20029;-77
2022/03/02 03:21:12;;;;;;;12.85;4.07;;;;;;;;;;5036586;28;20028;-76
2022/03/02 03:23:39;;;;;;;18.88;4.72;;;;;;;;;;5035931;28;20017;-77
2022/03/02 03:26:05;;;;;;;12.15;3.72;;;;;;;;;;5033522;28;20033;-77
2022/03/02 03:28:31;;;;;;;12.07;4.10;;;;;;;;;;5037557;28;20401;-77
2022/03/02 03:30:58;;;;;;;14.15;3.80;;;;;;;;;;5035320;28;20524;-77
2022/03/02 03:33:24;;;;;;;14.07;4.05;;;;;;;;;;5036651;28;20055;-77
2022/03/02 03:35:50;;;;;;;15.35;3.80;;;;;;;;;;5036345;28;20025;-77
2022/03/02 03:38:17;;;;;;;8.68;3.60;;;;;;;;;;5032478;28;20030;-77
2022/03/02 03:40:43;;;;;;;22.05;4.20;;;;;;;;;;5038227;28;20049;-77
2022/03/02 03:43:10;;;;;;;12.18;3.88;;;;;;;;;;5035489;28;20041;-77
2022/03/02 03:45:36;;;;;;;9.02;3.42;;;;;;;;;;5036725;28;20024;-77
2022/03/02 03:48:03;;;;;;;13.85;4.05;;;;;;;;;;5036863;28;20025;-77
2022/03/02 03:50:29;;;;;;;16.85;3.85;;;;;;;;;;5033658;28;20017;-77
2022/03/02 03:52:55;;;;;;;17.80;3.75;;;;;;;;;;5033889;28;20486;-77
2022/03/02 03:55:22;;;;;;;11.77;3.72;;;;;;;;;;5037789;28;20041;-77
2022/03/02 03:57:48;;;;;;;8.27;3.22;;;;;;;;;;5036355;28;20033;-77
2022/03/02 04:00:17;;;;;;;9.48;3.30;;;;;;;;;;5036353;28;20045;-77
2022/03/02 04:02:45;;;;;;;13.73;3.78;;;;;;;;;;5035610;28;20494;-77
2022/03/02 04:05:11;;;;;;;13.85;4.28;;;;;;;;;;5031051;28;20010;-77
2022/03/02 04:07:38;;;;;;;16.00;4.53;;;;;;;;;;5037731;28;20025;-77
2022/03/02 04:10:05;;;;;;;10.10;3.55;;;;;;;;;;5034688;28;20029;-77
2022/03/02 04:12:32;;;;;;;17.73;4.15;;;;;;;;;;5034727;28;20044;-77
2022/03/02 04:14:58;;;;;;;11.77;3.88;;;;;;;;;;5035929;28;20028;-77
2022/03/02 04:17:25;;;;;;;11.82;4.25;;;;;;;;;;5032880;28;20501;-76
2022/03/02 04:19:51;;;;;;;13.90;3.95;;;;;;;;;;5035807;28;20033;-77
2022/03/02 04:22:18;;;;;;;17.65;4.07;;;;;;;;;;5036738;28;20051;-77
2022/03/02 04:24:46;;;;;;;14.63;3.80;;;;;;;;;;5035531;28;20082;-77
2022/03/02 04:27:13;;;;;;;17.20;4.72;;;;;;;;;;5035704;28;20021;-76
2022/03/02 04:29:39;;;;;;;15.02;3.90;;;;;;;;;;5033481;28;20028;-77
2022/03/02 04:32:06;;;;;;;11.30;3.63;;;;;;;;;;5032775;28;20037;-77
2022/03/02 04:34:32;;;;;;;22.02;3.90;;;;;;;;;;5037373;28;20383;-77
2022/03/02 04:36:58;;;;;;;13.95;3.97;;;;;;;;;;5035658;28;20021;-77
2022/03/02 04:39:25;;;;;;;13.38;4.10;;;;;;;;;;5035806;28;20033;-77
2022/03/02 04:41:51;;;;;;;13.23;3.90;;;;;;;;;;5035303;28;20041;-77
2022/03/02 04:44:17;;;;;;;12.38;3.92;;;;;;;;;;5029999;28;20036;-77
2022/03/02 04:46:48;;;;;;;20.05;4.30;;;;;;;;;;5036660;28;20029;-77
2022/03/02 04:49:18;;;;;;;10.68;3.55;;;;;;;;;;5034759;28;20030;-77
2022/03/02 04:51:48;;;;;;;12.20;4.05;;;;;;;;;;5035140;28;20021;-77
2022/03/02 04:57:03;;;;;;;12.10;3.67;;;;;;;;;;5010152;28;20034;-77
2022/03/02 04:59:29;;;;;;;13.07;3.25;;;;;;;;;;5010653;28;20034;-77
2022/03/02 05:01:56;;;;;;;12.73;4.07;;;;;;;;;;5009954;28;20029;-77
2022/03/02 05:04:22;;;;;;;12.52;3.75;;;;;;;;;;5014175;28;20034;-77
2022/03/02 05:06:48;;;;;;;11.70;4.05;;;;;;;;;;5007328;28;20079;-77
2022/03/02 05:09:14;;;;;;;13.65;3.85;;;;;;;;;;4998098;28;20033;-77
2022/03/02 05:11:41;;;;;;;12.43;3.75;;;;;;;;;;5010203;28;20030;-77
2022/03/02 05:14:07;;;;;;;14.30;3.90;;;;;;;;;;5009886;28;20515;-77
2022/03/02 05:16:34;;;;;;;12.27;3.60;;;;;;;;;;5010146;28;20068;-77
2022/03/02 05:19:00;;;;;;;19.50;4.45;;;;;;;;;;5010005;28;20048;-77
2022/03/02 05:21:26;;;;;;;12.40;3.78;;;;;;;;;;5009727;28;20034;-77
2022/03/02 05:23:53;;;;;;;13.80;3.78;;;;;;;;;;5009935;28;20028;-77
2022/03/02 05:26:19;;;;;;;12.38;4.05;;;;;;;;;;5009767;28;20038;-77
2022/03/02 05:28:45;;;;;;;8.38;3.55;;;;;;;;;;5010080;28;20046;-77
2022/03/02 05:31:12;;;;;;;16.25;4.35;;;;;;;;;;5009352;28;20425;-76
2022/03/02 05:33:38;;;;;;;17.23;3.80;;;;;;;;;;5010182;28;20422;-77
2022/03/02 05:36:05;;;;;;;17.50;3.97;;;;;;;;;;5024972;28;20504;-77
2022/03/02 05:38:31;;;;;;;13.65;4.20;;;;;;;;;;5032315;28;20029;-77
2022/03/02 05:40:58;;;;;;;18.15;4.40;;;;;;;;;;5032626;28;20052;-76
2022/03/02 05:43:24;;;;;;;18.55;3.88;;;;;;;;;;5036038;28;20041;-77
2022/03/02 05:45:50;;;;;;;11.85;3.80;;;;;;;;;;5034003;28;20022;-77
2022/03/02 05:48:17;;;;;;;14.25;4.28;;;;;;;;;;5034364;28;20083;-77
2022/03/02 05:50:43;;;;;;;17.52;3.72;;;;;;;;;;5033916;28;20013;-77
2022/03/02 05:53:09;;;;;;;14.20;4.00;;;;;;;;;;5030414;28;20402;-77
2022/03/02 05:55:36;;;;;;;12.80;3.83;;;;;;;;;;5036303;28;20025;-77
2022/03/02 05:58:02;;;;;;;17.02;3.88;;;;;;;;;;5032929;28;20056;-77
2022/03/02 06:00:28;;;;;;;19.23;4.47;;;;;;;;;;5034045;28;20044;-77
2022/03/02 06:02:55;;;;;;;12.68;3.78;;;;;;;;;;5031914;28;20023;-77
2022/03/02 06:05:21;;;;;;;17.25;3.47;;;;;;;;;;5028956;28;20033;-77
2022/03/02 06:07:47;;;;;;;20.00;4.45;;;;;;;;;;5034775;28;20040;-77
2022/03/02 06:10:14;;;;;;;13.05;3.60;;;;;;;;;;5033416;28;20030;-77
2022/03/02 06:12:41;;;;;;;11.20;3.35;;;;;;;;;;5034058;28;20025;-77
2022/03/02 06:15:07;;;;;;;12.38;3.22;;;;;;;;;;5033760;28;20512;-77
2022/03/02 06:17:34;;;;;;;15.70;3.65;;;;;;;;;;5032055;28;20020;-76
2022/03/02 06:20:00;;;;;;;11.75;3.67;;;;;;;;;;5031884;28;20022;-77
2022/03/02 06:22:27;;;;;;;13.77;3.85;;;;;;;;;;5033881;28;20025;-77
2022/03/02 06:24:53;;;;;;;16.35;3.78;;;;;;;;;;5033999;28;20029;-77
2022/03/02 06:27:21;;;;;;;8.43;3.47;;;;;;;;;;5033788;28;20025;-77
2022/03/02 06:29:48;;;;;;;16.45;4.88;;;;;;;;;;5033516;28;20029;-77
2022/03/02 06:32:15;;;;;;;13.73;3.60;;;;;;;;;;5029654;28;20422;-77
2022/03/02 06:34:42;;;;;;;8.68;3.60;;;;;;;;;;5035861;28;20402;-77
2022/03/02 06:37:09;;;;;;;11.25;3.13;;;;;;;;;;5033917;28;20442;-77
2022/03/02 06:39:35;;;;;;;15.10;4.13;;;;;;;;;;5033668;28;20029;-77
2022/03/02 06:42:02;;;;;;;14.95;3.88;;;;;;;;;;5032369;28;20518;-77
2022/03/02 06:44:32;;;;;;;12.18;3.42;;;;;;;;;;5029197;28;20036;-76
2022/03/02 06:47:02;;;;;;;14.15;3.78;;;;;;;;;;5033702;28;20377;-77
2022/03/02 06:49:37;;;;;;;10.18;3.70;;;;;;;;;;5037656;28;20498;-77
2022/03/02 06:52:04;;;;;;;11.88;3.67;;;;;;;;;;5037314;28;20083;-77
2022/03/02 06:54:31;;;;;;;7.90;3.50;;;;;;;;;;5037680;28;20028;-77
2022/03/02 06:57:02;;;;;;;17.77;3.70;;;;;;;;;;5037563;28;20027;-77
2022/03/02 06:59:42;;;;;;;7.40;3.00;;;;;;;;;;5034384;28;20033;-77
2022/03/02 07:02:09;;;;;;;8.32;3.22;;;;;;;;;;5033944;28;20018;-77
2022/03/02 07:04:39;;;;;;;11.73;3.78;;;;;;;;;;5039122;28;20039;-77
2022/03/02 07:07:05;;;;;;;10.60;3.53;;;;;;;;;;5037318;28;20024;-77
2022/03/02 07:09:33;;;;;;;16.38;3.50;;;;;;;;;;5037223;28;20033;-77
2022/03/02 07:12:00;;;;;;;18.00;3.95;;;;;;;;;;5037165;28;20009;-77
2022/03/02 07:14:31;;;;;;;12.90;4.32;;;;;;;;;;5033303;28;20033;-77
2022/03/02 07:16:58;;;;;;;11.95;3.38;;;;;;;;;;5035873;28;20022;-77
2022/03/02 07:19:26;;;;;;;14.43;3.83;;;;;;;;;;5038786;28;20039;-77
2022/03/02 07:21:52;;;;;;;13.43;3.35;;;;;;;;;;5035561;28;20386;-77
2022/03/02 07:24:19;;;;;;;11.02;3.47;;;;;;;;;;5035524;28;20398;-77
2022/03/02 07:26:46;;;;;;;16.48;4.20;;;;;;;;;;5035151;28;20023;-77
2022/03/02 07:29:14;;;;;;;15.00;3.60;;;;;;;;;;5032195;28;20029;-77
2022/03/02 07:31:41;;;;;;;11.35;3.50;;;;;;;;;;5038837;28;20018;-76
2022/03/02 07:34:11;;;;;;;14.13;3.85;;;;;;;;;;5036464;28;20037;-77
2022/03/02 07:36:40;;;;;;;14.27;3.53;;;;;;;;;;5036694;28;20372;-77
2022/03/02 07:39:06;;;;;;;18.67;3.95;;;;;;;;;;5036610;28;20039;-76
2022/03/02 07:41:33;;;;;;;25.65;3.92;;;;;;;;;;5034032;28;20034;-77
2022/03/02 07:43:59;;;;;;;13.63;4.10;;;;;;;;;;5033425;28;20022;-77
2022/03/02 07:46:28;;;;;;;13.00;3.50;;;;;;;;;;5038290;28;20096;-77
2022/03/02 07:48:54;;;;;;;17.15;3.78;;;;;;;;;;5036813;28;20026;-77
2022/03/02 07:51:22;;;;;;;15.63;3.65;;;;;;;;;;5036418;28;20031;-77
2022/03/02 07:53:49;;;;;;;14.02;3.95;;;;;;;;;;5036275;28;20033;-77
2022/03/02 07:56:16;;;;;;;21.88;4.38;;;;;;;;;;5016443;28;20032;-78
2022/03/02 07:58:43;;;;;;;37.10;5.32;;;;;;;;;;5037517;28;20504;-78
2022/03/02 08:01:13;;;;;;;24.23;4.78;;;;;;;;;;5034887;28;20489;-77
2022/03/02 08:03:40;;;;;;;16.00;3.65;;;;;;;;;;5034799;28;20030;-77
2022/03/02 08:06:06;;;;;;;13.73;4.95;;;;;;;;;;5036314;28;20017;-77
2022/03/02 08:08:34;;;;;;;10.50;3.50;;;;;;;;;;5032758;28;20021;-77
2022/03/02 08:11:01;;;;;;;13.73;3.33;;;;;;;;;;5033493;28;20024;-77
2022/03/02 08:13:30;;;;;;;14.07;4.25;;;;;;;;;;5049250;28;20049;-77
2022/03/02 08:15:56;;;;;;;13.07;4.20;;;;;;;;;;5036930;28;20022;-77
2022/03/02 08:18:23;;;;;;;9.43;3.53;;;;;;;;;;5036180;28;20037;-77
2022/03/02 08:20:50;;;;;;;15.60;4.60;;;;;;;;;;5035001;28;20025;-77
2022/03/02 08:23:19;;;;;;;10.50;4.20;;;;;;;;;;5030614;28;20022;-77
2022/03/02 08:25:52;;;;;;;9.50;3.92;;;;;;;;;;5031161;28;20017;-77
2022/03/02 08:28:19;;;;;;;8.23;3.53;;;;;;;;;;5036286;28;20030;-77
2022/03/02 08:30:48;;;;;;;14.25;4.20;;;;;;;;;;5036899;28;20436;-77
2022/03/02 08:33:16;;;;;;;11.75;3.78;;;;;;;;;;5034873;28;20045;-77
2022/03/02 08:35:43;;;;;;;12.20;4.40;;;;;;;;;;5034756;28;20021;-77
2022/03/02 08:38:10;;;;;;;10.68;4.45;;;;;;;;;;5031232;28;20514;-77
2022/03/02 08:40:38;;;;;;;13.70;3.50;;;;;;;;;;5035665;28;20033;-77
2022/03/02 08:43:06;;;;;;;16.60;4.53;;;;;;;;;;5033376;28;20029;-77
2022/03/02 08:45:33;;;;;;;13.38;4.05;;;;;;;;;;5035441;28;20020;-77
2022/03/02 08:48:05;;;;;;;13.73;4.30;;;;;;;;;;5034192;28;20027;-77
2022/03/02 08:50:32;;;;;;;6.85;4.35;;;;;;;;;;5033175;28;20006;-77
2022/03/02 08:52:58;;;;;;;13.88;3.90;;;;;;;;;;5033086;28;20052;-77
2022/03/02 08:55:28;;;;;;;13.07;4.57;;;;;;;;;;5035146;28;20029;-77
2022/03/02 08:57:55;;;;;;;11.05;4.47;;;;;;;;;;5034604;28;20029;-77
2022/03/02 09:00:21;;;;;;;18.25;4.65;;;;;;;;;;5034122;28;20029;-77
2022/03/02 09:02:48;;;;;;;12.60;4.18;;;;;;;;;;5034606;28;20013;-77
2022/03/02 09:05:14;;;;;;;9.70;4.30;;;;;;;;;;5062197;28;20033;-77
2022/03/02 09:07:41;;;;;;;12.98;4.28;;;;;;;;;;5036518;28;20027;-77
2022/03/02 09:10:08;;;;;;;12.70;4.78;;;;;;;;;;5033408;28;20021;-78
2022/03/02 09:12:35;;;;;;;11.13;4.38;;;;;;;;;;5034422;28;20046;-77
2022/03/02 09:15:02;;;;;;;16.55;4.63;;;;;;;;;;5033295;28;20033;-77
2022/03/02 09:17:29;;;;;;;11.68;4.90;;;;;;;;;;5030529;28;20029;-77
2022/03/02 09:19:56;;;;;;;10.25;4.20;;;;;;;;;;5033375;28;20033;-77
2022/03/02 09:22:24;;;;;;;13.50;4.53;;;;;;;;;;5033916;28;20013;-77
2022/03/02 09:24:50;;;;;;;13.40;3.90;;;;;;;;;;5034562;28;20026;-77
2022/03/02 09:27:20;;;;;;;14.52;4.55;;;;;;;;;;5031307;28;21095;-77
2022/03/02 09:29:48;;;;;;;10.60;4.30;;;;;;;;;;5031955;28;20013;-77
2022/03/02 09:32:15;;;;;;;17.67;4.18;;;;;;;;;;5028278;28;20034;-78
2022/03/02 09:34:45;;;;;;;12.38;4.90;;;;;;;;;;5034411;28;20502;-78
2022/03/02 09:37:14;;;;;;;8.35;4.45;;;;;;;;;;5031655;28;20022;-78
2022/03/02 09:39:41;;;;;;;13.45;4.70;;;;;;;;;;5033001;28;20037;-77
2022/03/02 09:42:12;;;;;;;12.40;5.00;;;;;;;;;;5032960;28;20009;-77
2022/03/02 09:44:46;;;;;;;12.50;4.73;;;;;;;;;;5032045;28;20404;-77
2022/03/02 09:47:20;;;;;;;17.80;4.78;;;;;;;;;;5028859;28;20806;-77
2022/03/02 09:49:50;;;;;;;12.45;4.72;;;;;;;;;;5075950;28;20017;-77
2022/03/02 09:52:18;;;;;;;11.25;4.75;;;;;;;;;;5034005;28;20013;-77
2022/03/02 09:54:47;;;;;;;18.73;5.15;;;;;;;;;;5033749;28;20028;-77
2022/03/02 09:57:17;;;;;;;17.25;5.05;;;;;;;;;;5032353;28;20120;-78
2022/03/02 09:59:48;;;;;;;10.43;5.07;;;;;;;;;;5032986;28;20507;-77
2022/03/02 10:02:17;;;;;;;14.27;5.07;;;;;;;;;;5029485;28;20036;-77
2022/03/02 10:04:51;;;;;;;11.68;4.40;;;;;;;;;;5033312;28;20033;-77
2022/03/02 10:07:29;;;;;;;13.10;4.82;;;;;;;;;;5032553;28;20026;-78
2022/03/02 10:10:17;;;;;;;11.10;4.75;;;;;;;;;;5033736;28;20028;-77
2022/03/02 10:12:44;;;;;;;13.30;5.50;;;;;;;;;;5033456;28;20052;-77
2022/03/02 10:15:14;;;;;;;23.67;5.50;;;;;;;;;;5033808;28;20025;-77
2022/03/02 10:17:41;;;;;;;10.80;4.93;;;;;;;;;;5032434;28;20017;-77
2022/03/02 10:20:08;;;;;;;10.13;5.10;;;;;;;;;;5029606;28;20030;-75
2022/03/02 10:22:40;;;;;;;12.23;5.25;;;;;;;;;;5038167;28;20090;-77
2022/03/02 10:25:08;;;;;;;16.00;4.90;;;;;;;;;;5036076;28;20394;-78
2022/03/02 10:27:54;;;;;;;12.60;5.15;;;;;;;;;;5037747;28;20025;-77
2022/03/02 10:30:21;;;;;;;9.98;4.85;;;;;;;;;;5037436;28;20504;-77
2022/03/02 10:32:49;;;;;;;12.65;5.40;;;;;;;;;;5032321;28;20041;-78
2022/03/02 10:35:19;;;;;;;14.93;5.25;;;;;;;;;;5031759;28;20028;-77
2022/03/02 10:38:14;;;;;;;10.38;4.70;;;;;;;;;;5046480;28;20449;-77
2022/03/02 10:40:41;;;;;;;10.80;4.90;;;;;;;;;;5041257;28;20057;-77
2022/03/02 10:43:10;;;;;;;12.38;4.50;;;;;;;;;;5037808;28;20013;-77
2022/03/02 10:45:40;;;;;;;12.32;4.60;;;;;;;;;;5037463;28;20440;-77
2022/03/02 10:48:09;;;;;;;9.63;4.53;;;;;;;;;;5037383;28;20025;-77
2022/03/02 10:50:37;;;;;;;14.88;5.18;;;;;;;;;;5034826;28;20576;-78
2022/03/02 10:53:04;;;;;;;11.77;4.28;;;;;;;;;;5033431;28;20033;-77
2022/03/02 10:55:33;;;;;;;13.98;4.43;;;;;;;;;;5038711;28;20048;-77
2022/03/02 10:58:01;;;;;;;10.73;4.38;;;;;;;;;;5036879;28;20025;-78
2022/03/02 11:00:28;;;;;;;12.70;4.50;;;;;;;;;;5036727;28;20494;-77
2022/03/02 11:02:57;;;;;;;9.65;4.55;;;;;;;;;;5036877;28;20086;-77
2022/03/02 11:05:24;;;;;;;10.00;4.15;;;;;;;;;;5032939;28;20020;-77
2022/03/02 11:07:51;;;;;;;8.93;4.63;;;;;;;;;;5037381;28;20037;-77
2022/03/02 11:10:20;;;;;;;9.13;4.20;;;;;;;;;;5037985;28;20026;-77
2022/03/02 11:12:47;;;;;;;12.00;4.43;;;;;;;;;;5036444;28;20413;-77
2022/03/02 11:15:15;;;;;;;8.63;4.65;;;;;;;;;;5035319;28;20539;-77
2022/03/02 11:17:51;;;;;;;9.95;4.28;;;;;;;;;;5034263;28;20021;-77
2022/03/02 11:20:19;;;;;;;11.02;4.22;;;;;;;;;;5016904;28;20075;-78
2022/03/02 11:22:56;;;;;;;14.77;5.28;;;;;;;;;;5038494;28;20033;-77
2022/03/02 11:25:41;;;;;;;9.60;4.10;;;;;;;;;;5036805;28;20405;-77
2022/03/02 11:28:07;;;;;;;5.60;3.95;;;;;;;;;;5036774;28;20479;-77
2022/03/02 11:30:34;;;;;;;6.75;3.83;;;;;;;;;;5036910;28;20030;-78
2022/03/02 11:33:06;;;;;;;12.07;3.85;;;;;;;;;;5033875;28;20033;-77
2022/03/02 11:35:36;;;;;;;8.48;3.78;;;;;;;;;;5034505;28;20071;-78
2022/03/02 11:38:04;;;;;;;9.00;4.10;;;;;;;;;;5033252;28;20017;-77
2022/03/02 11:40:57;;;;;;;8.63;3.33;;;;;;;;;;5038297;28;20049;-77
2022/03/02 11:43:28;;;;;;;11.75;3.88;;;;;;;;;;5036986;28;20509;-77
2022/03/02 11:45:56;;;;;;;;;;;;;;;;;;5036734;28;20127;-77
2022/03/02 11:48:24;;;;;;;5.22;3.58;;;;;;;;;;5036487;28;19905;-77
2022/03/02 11:51:04;;;;;;;14.73;3.70;;;;;;;;;;5036560;28;20021;-77
2022/03/02 11:53:40;;;;;;;6.03;3.03;;;;;;;;;;5032250;28;20060;-77
2022/03/02 11:56:07;;;;;;;6.50;3.53;;;;;;;;;;5033436;28;20275;-78
2022/03/02 11:58:53;;;;;;;9.88;3.63;;;;;;;;;;5036474;28;20017;-77
2022/03/02 12:01:19;;;;;;;8.77;3.92;;;;;;;;;;5036270;28;20032;-77
2022/03/02 12:03:55;;;;;;;8.40;4.20;;;;;;;;;;5034800;28;20041;-78
2022/03/02 12:06:22;;;;;;;6.95;3.78;;;;;;;;;;5036159;28;20022;-78
2022/03/02 12:08:53;;;;;;;9.57;4.32;;;;;;;;;;5035779;28;20516;-77
2022/03/02 12:11:26;;;;;;;9.88;3.53;;;;;;;;;;5016475;28;20022;-77
2022/03/02 12:14:00;;;;;;;13.80;3.70;;;;;;;;;;5035717;28;20033;-77
2022/03/02 12:16:43;;;;;;;10.02;3.72;;;;;;;;;;5037442;28;20041;-78
2022/03/02 12:19:26;;;;;;;5.50;3.58;;;;;;;;;;5035845;28;20029;-77
2022/03/02 12:22:01;;;;;;;4.53;3.20;;;;;;;;;;5035734;28;20504;-77
2022/03/02 12:24:29;;;;;;;9.60;3.80;;;;;;;;;;5035953;28;20489;-77
2022/03/02 12:27:09;;;;;;;5.03;3.03;;;;;;;;;;5046624;28;20058;-77
2022/03/02 12:29:36;;;;;;;8.95;3.30;;;;;;;;;;5033783;28;20030;-78
2022/03/02 12:32:16;;;;;;;5.15;2.90;;;;;;;;;;5013906;28;20048;-77
2022/03/02 12:34:47;;;;;;;5.32;3.10;;;;;;;;;;5036137;28;20045;-78
2022/03/02 12:37:14;;;;;;;5.57;3.10;;;;;;;;;;5034371;28;20055;-77
2022/03/02 12:39:41;;;;;;;4.15;2.97;;;;;;;;;;5034367;28;20033;-78
2022/03/02 12:42:08;;;;;;;4.45;2.67;;;;;;;;;;5035485;28;20037;-77
2022/03/02 12:44:36;;;;;;;5.68;3.25;;;;;;;;;;5033087;28;20018;-78
2022/03/02 12:47:08;;;;;;;6.10;2.95;;;;;;;;;;5032468;28;20037;-77
2022/03/02 12:49:36;;;;;;;11.70;2.60;;;;;;;;;;5036114;28;20025;-77
2022/03/02 12:52:04;;;;;;;4.93;2.90;;;;;;;;;;5035414;28;20049;-77
2022/03/02 12:54:33;;;;;;;5.80;2.55;;;;;;;;;;5034004;28;20510;-77
2022/03/02 12:57:00;;;;;;;3.60;2.28;;;;;;;;;;5035325;28;20024;-78
2022/03/02 12:59:27;;;;;;;11.70;3.28;;;;;;;;;;5024237;28;20030;-78
2022/03/02 13:01:53;;;;;;;18.05;3.03;;;;;;;;;;5032760;28;20036;-78
2022/03/02 13:04:24;;;;;;;5.72;2.60;;;;;;;;;;5035623;28;20556;-77
2022/03/02 13:07:16;;;;;;;7.57;2.35;;;;;;;;;;5034658;28;20029;-78
2022/03/02 13:09:47;;;;;;;6.80;2.50;;;;;;;;;;5034721;28;20032;-78
2022/03/02 13:12:28;;;;;;;3.70;2.28;;;;;;;;;;5032724;28;20020;-77
2022/03/02 13:14:55;;;;;;;5.47;2.30;;;;;;;;;;5031368;28;20044;-78
2022/03/02 13:17:22;;;;;;;3.22;2.50;;;;;;;;;;5030403;28;20030;-78
2022/03/02 13:19:49;;;;;;;2.67;2.10;;;;;;;;;;5035719;28;20041;-77
2022/03/02 13:22:27;;;;;;;4.15;2.10;;;;;;;;;;5035075;28;20098;-78
2022/03/02 13:24:55;;;;;;;2.33;2.05;;;;;;;;;;5034373;28;20037;-77
2022/03/02 13:27:22;;;;;;;3.35;2.50;;;;;;;;;;5033066;28;20026;-77
2022/03/02 13:29:50;;;;;;;3.33;2.20;;;;;;;;;;5033485;28;20051;-78
2022/03/02 13:32:17;;;;;;;4.90;2.70;;;;;;;;;;5029983;28;20014;-78
2022/03/02 13:35:02;;;;;;;3.92;2.05;;;;;;;;;;5047342;28;20503;-78
2022/03/02 13:37:47;;;;;;;3.20;2.00;;;;;;;;;;5034019;28;20025;-78
2022/03/02 13:40:32;;;;;;;2.47;1.88;;;;;;;;;;5033184;28;20087;-78
2022/03/02 13:43:11;;;;;;;3.53;2.30;;;;;;;;;;5034033;28;20059;-78
2022/03/02 13:45:38;;;;;;;2.33;1.90;;;;;;;;;;5034266;28;20028;-78
2022/03/02 13:48:16;;;;;;;4.97;2.20;;;;;;;;;;5034014;28;20490;-77
2022/03/02 13:50:55;;;;;;;3.38;1.88;;;;;;;;;;5031304;28;20020;-77
2022/03/02 13:53:33;;;;;;;4.30;2.03;;;;;;;;;;5015466;28;20042;-77
2022/03/02 13:56:06;;;;;;;4.90;2.03;;;;;;;;;;5063468;28;20037;-77
2022/03/02 13:58:34;;;;;;;3.47;2.20;;;;;;;;;;5066258;28;20034;-78
2022/03/02 14:01:17;;;;;;;7.28;2.38;;;;;;;;;;5033909;28;20098;-78
2022/03/02 14:03:51;;;;;;;26.42;3.53;;;;;;;;;;5034179;28;20032;-78
2022/03/02 14:06:17;;;;;;;6.47;2.97;;;;;;;;;;5034219;28;20017;-79
2022/03/02 14:08:48;;;;;;;3.83;2.20;;;;;;;;;;5032941;28;20021;-78
2022/03/02 14:11:34;;;;;;;3.40;2.53;;;;;;;;;;5029575;28;20028;-78
2022/03/02 14:14:08;;;;;;;6.03;2.35;;;;;;;;;;5043026;28;20536;-78
2022/03/02 14:16:35;;;;;;;7.28;2.20;;;;;;;;;;5034479;28;20056;-78
2022/03/02 14:19:09;;;;;;;2.92;2.10;;;;;;;;;;5033753;28;20383;-78
2022/03/02 14:21:36;;;;;;;3.00;1.98;;;;;;;;;;5033627;28;20055;-78
2022/03/02 14:24:10;;;;;;;9.10;2.00;;;;;;;;;;5033744;28;20025;-78
2022/03/02 14:26:36;;;;;;;4.25;2.30;;;;;;;;;;5031504;28;20028;-78
2022/03/02 14:29:02;;;;;;;4.10;2.30;;;;;;;;;;5032131;28;20021;-78
2022/03/02 14:31:29;;;;;;;4.38;2.45;;;;;;;;;;5033525;28;20025;-78
2022/03/02 14:33:56;;;;;;;4.55;2.42;;;;;;;;;;5031810;28;20033;-78
2022/03/02 14:36:22;;;;;;;4.05;2.10;;;;;;;;;;5033702;28;20032;-78
2022/03/02 14:38:49;;;;;;;4.22;2.30;;;;;;;;;;5033305;28;20023;-77
2022/03/02 14:41:33;;;;;;;7.07;2.05;;;;;;;;;;5028868;28;20044;-78
2022/03/02 14:44:01;;;;;;;3.88;2.15;;;;;;;;;;5043133;28;20397;-78